sensor_id;sensor_type;location;lat;lon;timestamp;P1;durP1;ratioP1;P2;durP2;ratioP2
22614;SDS011;11474;50.790;0.298;2023-02-18T00:01:26;25.30;;;5.15;;
22614;SDS011;11474;50.790;0.298;2023-02-18T00:03:58;26.88;;;5.80;;
22614;SDS011;11474;50.790;0.298;2023-02-18T00:06:32;25.80;;;5.90;;
22614;SDS011;11474;50.790;0.298;2023-02-18T00:08:58;34.90;;;6.00;;
22614;SDS011;11474;50.790;0.298;2023-02-18T00:11:26;32.83;;;6.40;;
22614;SDS011;11474;50.790;0.298;2023-02-18T00:13:53;35.25;;;6.45;;
22614;SDS011;11474;50.790;0.298;2023-02-18T00:16:20;28.58;;;6.30;;
22614;SDS011;11474;50.790;0.298;2023-02-18T00:18:46;37.63;;;6.60;;
22614;SDS011;11474;50.790;0.298;2023-02-18T00:21:13;41.53;;;7.28;;
22614;SDS011;11474;50.790;0.298;2023-02-18T00:23:39;39.45;;;6.82;;
22614;SDS011;11474;50.790;0.298;2023-02-18T00:26:06;39.30;;;6.50;;
22614;SDS011;11474;50.790;0.298;2023-02-18T00:28:33;42.83;;;8.00;;
22614;SDS011;11474;50.790;0.298;2023-02-18T00:31:04;50.58;;;7.55;;
22614;SDS011;11474;50.790;0.298;2023-02-18T00:33:30;43.47;;;7.28;;
22614;SDS011;11474;50.790;0.298;2023-02-18T00:36:00;53.13;;;8.90;;
22614;SDS011;11474;50.790;0.298;2023-02-18T00:38:26;46.05;;;7.93;;
22614;SDS011;11474;50.790;0.298;2023-02-18T00:40:52;52.07;;;7.53;;
22614;SDS011;11474;50.790;0.298;2023-02-18T00:43:18;37.72;;;6.50;;
22614;SDS011;11474;50.790;0.298;2023-02-18T00:45:45;43.33;;;6.43;;
22614;SDS011;11474;50.790;0.298;2023-02-18T00:48:11;45.90;;;6.97;;
22614;SDS011;11474;50.790;0.298;2023-02-18T00:50:37;43.00;;;6.67;;
22614;SDS011;11474;50.790;0.298;2023-02-18T00:53:03;47.40;;;6.90;;
22614;SDS011;11474;50.790;0.298;2023-02-18T00:55:29;44.40;;;7.03;;
22614;SDS011;11474;50.790;0.298;2023-02-18T00:57:55;46.80;;;7.30;;
22614;SDS011;11474;50.790;0.298;2023-02-18T01:00:21;59.55;;;7.72;;
22614;SDS011;11474;50.790;0.298;2023-02-18T01:02:49;56.33;;;9.13;;
22614;SDS011;11474;50.790;0.298;2023-02-18T01:05:18;42.28;;;7.68;;
22614;SDS011;11474;50.790;0.298;2023-02-18T01:07:44;48.22;;;7.50;;
22614;SDS011;11474;50.790;0.298;2023-02-18T01:10:10;53.50;;;8.57;;
22614;SDS011;11474;50.790;0.298;2023-02-18T01:12:36;55.42;;;8.98;;
22614;SDS011;11474;50.790;0.298;2023-02-18T01:15:03;54.10;;;8.60;;
22614;SDS011;11474;50.790;0.298;2023-02-18T01:17:29;57.65;;;9.10;;
22614;SDS011;11474;50.790;0.298;2023-02-18T01:19:55;61.55;;;8.48;;
22614;SDS011;11474;50.790;0.298;2023-02-18T01:22:21;52.33;;;7.85;;
22614;SDS011;11474;50.790;0.298;2023-02-18T01:24:47;58.08;;;7.95;;
22614;SDS011;11474;50.790;0.298;2023-02-18T01:27:13;55.70;;;8.73;;
22614;SDS011;11474;50.790;0.298;2023-02-18T01:29:39;53.25;;;7.60;;
22614;SDS011;11474;50.790;0.298;2023-02-18T01:32:05;60.30;;;8.65;;
22614;SDS011;11474;50.790;0.298;2023-02-18T01:34:32;61.67;;;8.38;;
22614;SDS011;11474;50.790;0.298;2023-02-18T01:36:58;56.20;;;8.43;;
22614;SDS011;11474;50.790;0.298;2023-02-18T01:39:24;51.58;;;7.88;;
22614;SDS011;11474;50.790;0.298;2023-02-18T01:41:55;58.95;;;7.88;;
22614;SDS011;11474;50.790;0.298;2023-02-18T01:44:22;54.50;;;8.48;;
22614;SDS011;11474;50.790;0.298;2023-02-18T01:46:49;70.97;;;9.23;;
22614;SDS011;11474;50.790;0.298;2023-02-18T01:49:17;71.57;;;9.55;;
22614;SDS011;11474;50.790;0.298;2023-02-18T01:51:45;67.00;;;8.73;;
22614;SDS011;11474;50.790;0.298;2023-02-18T01:54:13;61.60;;;8.50;;
22614;SDS011;11474;50.790;0.298;2023-02-18T01:56:44;63.35;;;8.73;;
22614;SDS011;11474;50.790;0.298;2023-02-18T01:59:12;61.38;;;8.68;;
22614;SDS011;11474;50.790;0.298;2023-02-18T02:01:39;69.03;;;9.23;;
22614;SDS011;11474;50.790;0.298;2023-02-18T02:04:07;68.40;;;8.30;;
22614;SDS011;11474;50.790;0.298;2023-02-18T02:06:33;70.40;;;9.25;;
22614;SDS011;11474;50.790;0.298;2023-02-18T02:09:00;64.68;;;8.02;;
22614;SDS011;11474;50.790;0.298;2023-02-18T02:17:05;57.90;;;7.63;;
22614;SDS011;11474;50.790;0.298;2023-02-18T02:22:11;57.20;;;7.28;;
22614;SDS011;11474;50.790;0.298;2023-02-18T02:35:10;41.83;;;5.80;;
22614;SDS011;11474;50.790;0.298;2023-02-18T02:47:52;38.30;;;5.80;;
22614;SDS011;11474;50.790;0.298;2023-02-18T02:50:22;49.03;;;7.38;;
22614;SDS011;11474;50.790;0.298;2023-02-18T02:52:51;44.78;;;6.68;;
22614;SDS011;11474;50.790;0.298;2023-02-18T02:55:19;37.50;;;5.85;;
22614;SDS011;11474;50.790;0.298;2023-02-18T02:57:47;40.53;;;6.10;;
22614;SDS011;11474;50.790;0.298;2023-02-18T03:00:14;44.20;;;6.47;;
22614;SDS011;11474;50.790;0.298;2023-02-18T03:03:02;43.75;;;5.88;;
22614;SDS011;11474;50.790;0.298;2023-02-18T03:05:49;40.05;;;6.65;;
22614;SDS011;11474;50.790;0.298;2023-02-18T03:15:57;34.90;;;5.40;;
22614;SDS011;11474;50.790;0.298;2023-02-18T03:18:29;34.60;;;5.72;;
22614;SDS011;11474;50.790;0.298;2023-02-18T03:21:08;37.47;;;5.35;;
22614;SDS011;11474;50.790;0.298;2023-02-18T03:23:57;34.47;;;5.35;;
22614;SDS011;11474;50.790;0.298;2023-02-18T03:26:21;28.60;;;4.28;;
22614;SDS011;11474;50.790;0.298;2023-02-18T03:28:49;30.17;;;4.90;;
22614;SDS011;11474;50.790;0.298;2023-02-18T03:31:17;32.37;;;4.07;;
22614;SDS011;11474;50.790;0.298;2023-02-18T03:33:47;26.58;;;4.22;;
22614;SDS011;11474;50.790;0.298;2023-02-18T03:36:14;29.70;;;4.32;;
22614;SDS011;11474;50.790;0.298;2023-02-18T03:38:53;25.92;;;4.43;;
22614;SDS011;11474;50.790;0.298;2023-02-18T03:41:21;32.80;;;5.43;;
22614;SDS011;11474;50.790;0.298;2023-02-18T03:43:51;24.55;;;4.32;;
22614;SDS011;11474;50.790;0.298;2023-02-18T03:46:17;31.52;;;4.72;;
22614;SDS011;11474;50.790;0.298;2023-02-18T03:48:43;29.90;;;4.72;;
22614;SDS011;11474;50.790;0.298;2023-02-18T03:51:09;30.48;;;4.63;;
22614;SDS011;11474;50.790;0.298;2023-02-18T03:53:36;31.98;;;5.28;;
22614;SDS011;11474;50.790;0.298;2023-02-18T03:56:02;30.92;;;5.43;;
22614;SDS011;11474;50.790;0.298;2023-02-18T03:58:28;28.33;;;4.72;;
22614;SDS011;11474;50.790;0.298;2023-02-18T04:00:54;26.38;;;4.20;;
22614;SDS011;11474;50.790;0.298;2023-02-18T04:03:20;33.10;;;4.57;;
22614;SDS011;11474;50.790;0.298;2023-02-18T04:05:46;26.45;;;4.43;;
22614;SDS011;11474;50.790;0.298;2023-02-18T04:08:12;25.17;;;4.07;;
22614;SDS011;11474;50.790;0.298;2023-02-18T04:10:38;25.40;;;4.03;;
22614;SDS011;11474;50.790;0.298;2023-02-18T04:13:04;23.67;;;3.90;;
22614;SDS011;11474;50.790;0.298;2023-02-18T04:15:30;25.27;;;3.85;;
22614;SDS011;11474;50.790;0.298;2023-02-18T04:17:58;25.52;;;3.90;;
22614;SDS011;11474;50.790;0.298;2023-02-18T04:20:24;22.23;;;3.50;;
22614;SDS011;11474;50.790;0.298;2023-02-18T04:22:50;30.73;;;4.53;;
22614;SDS011;11474;50.790;0.298;2023-02-18T04:25:16;27.48;;;4.47;;
22614;SDS011;11474;50.790;0.298;2023-02-18T04:27:42;32.83;;;4.70;;
22614;SDS011;11474;50.790;0.298;2023-02-18T04:30:08;29.67;;;4.87;;
22614;SDS011;11474;50.790;0.298;2023-02-18T04:32:34;33.22;;;5.57;;
22614;SDS011;11474;50.790;0.298;2023-02-18T04:35:00;35.63;;;5.68;;
22614;SDS011;11474;50.790;0.298;2023-02-18T04:37:27;29.55;;;5.07;;
22614;SDS011;11474;50.790;0.298;2023-02-18T04:39:53;35.00;;;5.63;;
22614;SDS011;11474;50.790;0.298;2023-02-18T04:42:19;31.95;;;5.22;;
22614;SDS011;11474;50.790;0.298;2023-02-18T04:44:45;25.27;;;4.18;;
22614;SDS011;11474;50.790;0.298;2023-02-18T04:47:11;27.80;;;4.72;;
22614;SDS011;11474;50.790;0.298;2023-02-18T04:49:37;32.67;;;4.57;;
22614;SDS011;11474;50.790;0.298;2023-02-18T04:52:03;30.27;;;4.55;;
22614;SDS011;11474;50.790;0.298;2023-02-18T04:54:29;24.48;;;3.72;;
22614;SDS011;11474;50.790;0.298;2023-02-18T04:56:55;28.55;;;3.92;;
22614;SDS011;11474;50.790;0.298;2023-02-18T04:59:21;21.08;;;3.67;;
22614;SDS011;11474;50.790;0.298;2023-02-18T05:01:48;31.67;;;4.57;;
22614;SDS011;11474;50.790;0.298;2023-02-18T05:04:14;28.30;;;4.57;;
22614;SDS011;11474;50.790;0.298;2023-02-18T05:06:41;27.65;;;4.13;;
22614;SDS011;11474;50.790;0.298;2023-02-18T05:09:07;26.90;;;4.18;;
22614;SDS011;11474;50.790;0.298;2023-02-18T05:11:34;21.33;;;3.72;;
22614;SDS011;11474;50.790;0.298;2023-02-18T05:14:00;22.75;;;4.18;;
22614;SDS011;11474;50.790;0.298;2023-02-18T05:16:26;25.23;;;4.22;;
22614;SDS011;11474;50.790;0.298;2023-02-18T05:18:52;30.17;;;3.92;;
22614;SDS011;11474;50.790;0.298;2023-02-18T05:21:18;26.33;;;3.75;;
22614;SDS011;11474;50.790;0.298;2023-02-18T05:23:44;25.67;;;3.67;;
22614;SDS011;11474;50.790;0.298;2023-02-18T05:26:10;30.65;;;4.10;;
22614;SDS011;11474;50.790;0.298;2023-02-18T05:28:36;25.97;;;4.40;;
22614;SDS011;11474;50.790;0.298;2023-02-18T05:31:02;28.92;;;3.90;;
22614;SDS011;11474;50.790;0.298;2023-02-18T05:33:28;27.87;;;4.10;;
22614;SDS011;11474;50.790;0.298;2023-02-18T05:35:54;24.95;;;4.32;;
22614;SDS011;11474;50.790;0.298;2023-02-18T05:38:20;30.10;;;4.00;;
22614;SDS011;11474;50.790;0.298;2023-02-18T05:40:46;30.20;;;4.82;;
22614;SDS011;11474;50.790;0.298;2023-02-18T05:43:13;23.67;;;4.55;;
22614;SDS011;11474;50.790;0.298;2023-02-18T05:45:39;25.27;;;3.72;;
22614;SDS011;11474;50.790;0.298;2023-02-18T05:48:05;24.05;;;3.90;;
22614;SDS011;11474;50.790;0.298;2023-02-18T05:50:31;27.40;;;4.22;;
22614;SDS011;11474;50.790;0.298;2023-02-18T05:52:57;28.00;;;4.03;;
22614;SDS011;11474;50.790;0.298;2023-02-18T05:55:23;24.38;;;4.03;;
22614;SDS011;11474;50.790;0.298;2023-02-18T05:57:49;33.08;;;4.78;;
22614;SDS011;11474;50.790;0.298;2023-02-18T06:00:16;24.08;;;3.80;;
22614;SDS011;11474;50.790;0.298;2023-02-18T06:02:42;31.05;;;4.95;;
22614;SDS011;11474;50.790;0.298;2023-02-18T06:05:08;30.05;;;4.30;;
22614;SDS011;11474;50.790;0.298;2023-02-18T06:07:35;25.90;;;4.37;;
22614;SDS011;11474;50.790;0.298;2023-02-18T06:10:01;29.85;;;4.15;;
22614;SDS011;11474;50.790;0.298;2023-02-18T06:12:27;25.05;;;4.75;;
22614;SDS011;11474;50.790;0.298;2023-02-18T06:14:53;24.70;;;3.70;;
22614;SDS011;11474;50.790;0.298;2023-02-18T06:17:19;32.15;;;4.30;;
22614;SDS011;11474;50.790;0.298;2023-02-18T06:19:46;32.03;;;4.90;;
22614;SDS011;11474;50.790;0.298;2023-02-18T06:22:13;28.73;;;4.50;;
22614;SDS011;11474;50.790;0.298;2023-02-18T06:24:39;31.08;;;4.47;;
22614;SDS011;11474;50.790;0.298;2023-02-18T06:27:05;23.98;;;3.70;;
22614;SDS011;11474;50.790;0.298;2023-02-18T06:29:31;21.50;;;3.85;;
22614;SDS011;11474;50.790;0.298;2023-02-18T06:31:59;21.27;;;3.78;;
22614;SDS011;11474;50.790;0.298;2023-02-18T06:34:26;22.35;;;3.45;;
22614;SDS011;11474;50.790;0.298;2023-02-18T06:36:52;20.88;;;3.55;;
22614;SDS011;11474;50.790;0.298;2023-02-18T06:39:18;19.17;;;3.75;;
22614;SDS011;11474;50.790;0.298;2023-02-18T06:41:44;16.23;;;3.10;;
22614;SDS011;11474;50.790;0.298;2023-02-18T06:44:10;25.05;;;3.60;;
22614;SDS011;11474;50.790;0.298;2023-02-18T06:46:36;20.85;;;2.92;;
22614;SDS011;11474;50.790;0.298;2023-02-18T06:49:02;24.08;;;4.13;;
22614;SDS011;11474;50.790;0.298;2023-02-18T06:51:28;24.67;;;3.90;;
22614;SDS011;11474;50.790;0.298;2023-02-18T06:53:54;26.88;;;4.40;;
22614;SDS011;11474;50.790;0.298;2023-02-18T06:56:20;22.40;;;3.40;;
22614;SDS011;11474;50.790;0.298;2023-02-18T06:58:46;24.15;;;3.50;;
22614;SDS011;11474;50.790;0.298;2023-02-18T07:01:12;21.00;;;3.67;;
22614;SDS011;11474;50.790;0.298;2023-02-18T07:03:38;19.10;;;3.17;;
22614;SDS011;11474;50.790;0.298;2023-02-18T07:06:05;24.50;;;3.33;;
22614;SDS011;11474;50.790;0.298;2023-02-18T07:08:31;22.83;;;4.50;;
22614;SDS011;11474;50.790;0.298;2023-02-18T07:11:00;19.23;;;3.38;;
22614;SDS011;11474;50.790;0.298;2023-02-18T07:13:26;24.98;;;3.58;;
22614;SDS011;11474;50.790;0.298;2023-02-18T07:15:52;28.50;;;5.00;;
22614;SDS011;11474;50.790;0.298;2023-02-18T07:18:18;24.50;;;4.00;;
22614;SDS011;11474;50.790;0.298;2023-02-18T07:20:44;23.75;;;4.22;;
22614;SDS011;11474;50.790;0.298;2023-02-18T07:23:10;28.08;;;4.55;;
22614;SDS011;11474;50.790;0.298;2023-02-18T07:25:36;33.95;;;4.63;;
22614;SDS011;11474;50.790;0.298;2023-02-18T07:28:02;34.60;;;5.20;;
22614;SDS011;11474;50.790;0.298;2023-02-18T07:30:28;28.85;;;4.10;;
22614;SDS011;11474;50.790;0.298;2023-02-18T07:32:54;30.10;;;4.07;;
22614;SDS011;11474;50.790;0.298;2023-02-18T07:35:20;24.25;;;4.13;;
22614;SDS011;11474;50.790;0.298;2023-02-18T07:37:47;26.58;;;4.47;;
22614;SDS011;11474;50.790;0.298;2023-02-18T07:40:14;30.40;;;4.10;;
22614;SDS011;11474;50.790;0.298;2023-02-18T07:42:40;19.83;;;4.05;;
22614;SDS011;11474;50.790;0.298;2023-02-18T07:45:07;25.97;;;4.57;;
22614;SDS011;11474;50.790;0.298;2023-02-18T07:47:33;30.35;;;4.45;;
22614;SDS011;11474;50.790;0.298;2023-02-18T07:49:59;25.30;;;4.53;;
22614;SDS011;11474;50.790;0.298;2023-02-18T07:52:25;30.92;;;4.57;;
22614;SDS011;11474;50.790;0.298;2023-02-18T07:54:51;28.23;;;4.03;;
22614;SDS011;11474;50.790;0.298;2023-02-18T07:57:17;27.43;;;4.43;;
22614;SDS011;11474;50.790;0.298;2023-02-18T07:59:43;31.02;;;4.22;;
22614;SDS011;11474;50.790;0.298;2023-02-18T08:02:20;27.23;;;4.40;;
22614;SDS011;11474;50.790;0.298;2023-02-18T08:04:47;28.73;;;4.47;;
22614;SDS011;11474;50.790;0.298;2023-02-18T08:07:13;23.58;;;3.97;;
22614;SDS011;11474;50.790;0.298;2023-02-18T08:09:40;38.30;;;4.60;;
22614;SDS011;11474;50.790;0.298;2023-02-18T08:12:06;24.53;;;4.03;;
22614;SDS011;11474;50.790;0.298;2023-02-18T08:14:32;19.10;;;4.05;;
22614;SDS011;11474;50.790;0.298;2023-02-18T08:16:58;21.83;;;4.07;;
22614;SDS011;11474;50.790;0.298;2023-02-18T08:19:24;27.33;;;4.40;;
22614;SDS011;11474;50.790;0.298;2023-02-18T08:21:51;31.20;;;5.55;;
22614;SDS011;11474;50.790;0.298;2023-02-18T08:24:17;26.95;;;3.78;;
22614;SDS011;11474;50.790;0.298;2023-02-18T08:26:43;21.98;;;3.28;;
22614;SDS011;11474;50.790;0.298;2023-02-18T08:29:09;24.17;;;4.45;;
22614;SDS011;11474;50.790;0.298;2023-02-18T08:31:35;24.25;;;3.85;;
22614;SDS011;11474;50.790;0.298;2023-02-18T08:34:01;19.42;;;3.60;;
22614;SDS011;11474;50.790;0.298;2023-02-18T08:36:28;24.55;;;3.45;;
22614;SDS011;11474;50.790;0.298;2023-02-18T08:38:54;25.67;;;3.95;;
22614;SDS011;11474;50.790;0.298;2023-02-18T08:41:20;17.83;;;3.72;;
22614;SDS011;11474;50.790;0.298;2023-02-18T08:43:46;22.85;;;3.90;;
22614;SDS011;11474;50.790;0.298;2023-02-18T08:46:13;17.30;;;3.60;;
22614;SDS011;11474;50.790;0.298;2023-02-18T08:48:39;23.73;;;4.23;;
22614;SDS011;11474;50.790;0.298;2023-02-18T08:51:15;24.45;;;3.92;;
22614;SDS011;11474;50.790;0.298;2023-02-18T08:53:41;21.25;;;4.15;;
22614;SDS011;11474;50.790;0.298;2023-02-18T08:56:08;24.55;;;4.32;;
22614;SDS011;11474;50.790;0.298;2023-02-18T08:58:35;23.63;;;3.28;;
22614;SDS011;11474;50.790;0.298;2023-02-18T09:01:02;21.58;;;3.30;;
22614;SDS011;11474;50.790;0.298;2023-02-18T09:03:29;25.38;;;4.15;;
22614;SDS011;11474;50.790;0.298;2023-02-18T09:05:55;20.23;;;3.38;;
22614;SDS011;11474;50.790;0.298;2023-02-18T09:08:21;19.60;;;2.83;;
22614;SDS011;11474;50.790;0.298;2023-02-18T09:10:47;19.45;;;3.15;;
22614;SDS011;11474;50.790;0.298;2023-02-18T09:13:13;19.33;;;3.37;;
22614;SDS011;11474;50.790;0.298;2023-02-18T09:15:39;21.73;;;3.92;;
22614;SDS011;11474;50.790;0.298;2023-02-18T09:18:05;29.20;;;8.30;;
22614;SDS011;11474;50.790;0.298;2023-02-18T09:20:32;23.58;;;4.15;;
22614;SDS011;11474;50.790;0.298;2023-02-18T09:22:58;19.03;;;3.67;;
22614;SDS011;11474;50.790;0.298;2023-02-18T09:25:25;22.15;;;4.07;;
22614;SDS011;11474;50.790;0.298;2023-02-18T09:27:51;21.23;;;4.03;;
22614;SDS011;11474;50.790;0.298;2023-02-18T09:30:17;19.83;;;3.63;;
22614;SDS011;11474;50.790;0.298;2023-02-18T09:32:43;20.80;;;3.33;;
22614;SDS011;11474;50.790;0.298;2023-02-18T09:35:09;24.20;;;3.57;;
22614;SDS011;11474;50.790;0.298;2023-02-18T09:37:35;17.67;;;3.45;;
22614;SDS011;11474;50.790;0.298;2023-02-18T09:40:03;23.85;;;3.95;;
22614;SDS011;11474;50.790;0.298;2023-02-18T09:42:31;27.65;;;3.83;;
22614;SDS011;11474;50.790;0.298;2023-02-18T09:44:59;25.15;;;4.72;;
22614;SDS011;11474;50.790;0.298;2023-02-18T09:47:31;28.17;;;3.45;;
22614;SDS011;11474;50.790;0.298;2023-02-18T09:50:03;22.63;;;3.47;;
22614;SDS011;11474;50.790;0.298;2023-02-18T09:52:31;21.70;;;4.20;;
22614;SDS011;11474;50.790;0.298;2023-02-18T09:54:57;22.45;;;3.33;;
22614;SDS011;11474;50.790;0.298;2023-02-18T09:57:27;26.55;;;4.30;;
22614;SDS011;11474;50.790;0.298;2023-02-18T10:00:00;29.98;;;4.00;;
22614;SDS011;11474;50.790;0.298;2023-02-18T10:02:28;25.60;;;3.80;;
22614;SDS011;11474;50.790;0.298;2023-02-18T10:04:55;30.58;;;4.40;;
22614;SDS011;11474;50.790;0.298;2023-02-18T10:07:25;28.48;;;4.28;;
22614;SDS011;11474;50.790;0.298;2023-02-18T10:09:53;22.05;;;4.18;;
22614;SDS011;11474;50.790;0.298;2023-02-18T10:12:21;24.70;;;3.97;;
22614;SDS011;11474;50.790;0.298;2023-02-18T10:14:48;23.63;;;3.47;;
22614;SDS011;11474;50.790;0.298;2023-02-18T10:17:15;25.83;;;3.83;;
22614;SDS011;11474;50.790;0.298;2023-02-18T10:19:42;31.48;;;4.97;;
22614;SDS011;11474;50.790;0.298;2023-02-18T10:22:09;19.98;;;2.97;;
22614;SDS011;11474;50.790;0.298;2023-02-18T10:24:37;31.30;;;4.03;;
22614;SDS011;11474;50.790;0.298;2023-02-18T10:27:04;21.55;;;3.63;;
22614;SDS011;11474;50.790;0.298;2023-02-18T10:29:31;22.77;;;4.13;;
22614;SDS011;11474;50.790;0.298;2023-02-18T10:36:57;24.73;;;4.15;;
22614;SDS011;11474;50.790;0.298;2023-02-18T10:42:00;23.20;;;4.00;;
22614;SDS011;11474;50.790;0.298;2023-02-18T10:52:32;29.53;;;5.03;;
22614;SDS011;11474;50.790;0.298;2023-02-18T10:55:02;28.75;;;3.78;;
22614;SDS011;11474;50.790;0.298;2023-02-18T10:57:28;28.17;;;4.60;;
22614;SDS011;11474;50.790;0.298;2023-02-18T10:59:58;31.85;;;4.88;;
22614;SDS011;11474;50.790;0.298;2023-02-18T11:02:27;25.85;;;3.80;;
22614;SDS011;11474;50.790;0.298;2023-02-18T11:04:56;26.67;;;4.45;;
22614;SDS011;11474;50.790;0.298;2023-02-18T11:07:24;24.67;;;4.65;;
22614;SDS011;11474;50.790;0.298;2023-02-18T11:09:52;25.88;;;3.83;;
22614;SDS011;11474;50.790;0.298;2023-02-18T11:12:20;27.83;;;4.28;;
22614;SDS011;11474;50.790;0.298;2023-02-18T11:14:48;30.20;;;4.60;;
22614;SDS011;11474;50.790;0.298;2023-02-18T11:17:25;24.05;;;3.95;;
22614;SDS011;11474;50.790;0.298;2023-02-18T11:19:53;26.97;;;4.77;;
22614;SDS011;11474;50.790;0.298;2023-02-18T11:22:23;31.88;;;4.78;;
22614;SDS011;11474;50.790;0.298;2023-02-18T11:24:53;23.40;;;4.47;;
22614;SDS011;11474;50.790;0.298;2023-02-18T11:29:47;28.90;;;4.37;;
22614;SDS011;11474;50.790;0.298;2023-02-18T11:32:14;29.42;;;4.00;;
22614;SDS011;11474;50.790;0.298;2023-02-18T11:34:40;29.92;;;4.55;;
22614;SDS011;11474;50.790;0.298;2023-02-18T11:37:12;30.27;;;4.28;;
22614;SDS011;11474;50.790;0.298;2023-02-18T11:39:43;34.05;;;4.55;;
22614;SDS011;11474;50.790;0.298;2023-02-18T11:42:12;37.40;;;4.90;;
22614;SDS011;11474;50.790;0.298;2023-02-18T11:44:40;27.45;;;4.40;;
22614;SDS011;11474;50.790;0.298;2023-02-18T11:49:39;33.40;;;4.72;;
22614;SDS011;11474;50.790;0.298;2023-02-18T11:54:35;32.25;;;5.63;;
22614;SDS011;11474;50.790;0.298;2023-02-18T11:57:02;28.45;;;4.20;;
22614;SDS011;11474;50.790;0.298;2023-02-18T11:59:31;31.23;;;4.20;;
22614;SDS011;11474;50.790;0.298;2023-02-18T12:04:42;30.95;;;5.20;;
22614;SDS011;11474;50.790;0.298;2023-02-18T12:07:29;28.23;;;5.80;;
22614;SDS011;11474;50.790;0.298;2023-02-18T12:09:58;27.20;;;4.40;;
22614;SDS011;11474;50.790;0.298;2023-02-18T12:15:15;21.77;;;4.22;;
22614;SDS011;11474;50.790;0.298;2023-02-18T12:22:57;36.25;;;5.57;;
22614;SDS011;11474;50.790;0.298;2023-02-18T12:46:51;34.72;;;5.57;;
22614;SDS011;11474;50.790;0.298;2023-02-18T12:56:53;34.30;;;5.70;;
22614;SDS011;11474;50.790;0.298;2023-02-18T13:14:28;29.27;;;5.45;;
22614;SDS011;11474;50.790;0.298;2023-02-18T13:16:56;39.00;;;5.73;;
22614;SDS011;11474;50.790;0.298;2023-02-18T13:19:24;38.83;;;5.97;;
22614;SDS011;11474;50.790;0.298;2023-02-18T13:21:52;41.10;;;6.30;;
22614;SDS011;11474;50.790;0.298;2023-02-18T13:26:52;36.35;;;5.05;;
22614;SDS011;11474;50.790;0.298;2023-02-18T13:31:51;41.20;;;6.15;;
22614;SDS011;11474;50.790;0.298;2023-02-18T13:39:35;44.90;;;7.00;;
22614;SDS011;11474;50.790;0.298;2023-02-18T13:47:11;50.53;;;7.20;;
22614;SDS011;11474;50.790;0.298;2023-02-18T13:49:57;36.92;;;5.97;;
22614;SDS011;11474;50.790;0.298;2023-02-18T13:52:23;46.70;;;5.30;;
22614;SDS011;11474;50.790;0.298;2023-02-18T13:54:49;34.05;;;5.57;;
22614;SDS011;11474;50.790;0.298;2023-02-18T13:57:19;42.87;;;7.07;;
22614;SDS011;11474;50.790;0.298;2023-02-18T13:59:50;43.28;;;6.28;;
22614;SDS011;11474;50.790;0.298;2023-02-18T14:09:39;52.45;;;7.28;;
22614;SDS011;11474;50.790;0.298;2023-02-18T14:14:51;39.17;;;6.25;;
22614;SDS011;11474;50.790;0.298;2023-02-18T14:20:21;41.67;;;6.78;;
22614;SDS011;11474;50.790;0.298;2023-02-18T14:22:48;33.33;;;5.63;;
22614;SDS011;11474;50.790;0.298;2023-02-18T14:27:43;38.40;;;5.22;;
22614;SDS011;11474;50.790;0.298;2023-02-18T14:32:38;43.15;;;5.97;;
22614;SDS011;11474;50.790;0.298;2023-02-18T14:37:46;40.92;;;6.22;;
22614;SDS011;11474;50.790;0.298;2023-02-18T14:51:05;43.05;;;6.50;;
22614;SDS011;11474;50.790;0.298;2023-02-18T14:53:32;48.00;;;6.95;;
22614;SDS011;11474;50.790;0.298;2023-02-18T14:56:05;36.85;;;6.22;;
22614;SDS011;11474;50.790;0.298;2023-02-18T14:58:37;41.10;;;6.45;;
22614;SDS011;11474;50.790;0.298;2023-02-18T15:03:33;41.33;;;6.15;;
22614;SDS011;11474;50.790;0.298;2023-02-18T15:05:59;44.30;;;7.47;;
22614;SDS011;11474;50.790;0.298;2023-02-18T15:08:25;41.35;;;6.15;;
22614;SDS011;11474;50.790;0.298;2023-02-18T15:13:21;40.30;;;5.65;;
22614;SDS011;11474;50.790;0.298;2023-02-18T15:15:53;37.38;;;6.13;;
22614;SDS011;11474;50.790;0.298;2023-02-18T15:18:26;42.65;;;6.28;;
22614;SDS011;11474;50.790;0.298;2023-02-18T15:20:53;34.97;;;5.97;;
22614;SDS011;11474;50.790;0.298;2023-02-18T15:23:19;47.28;;;6.97;;
22614;SDS011;11474;50.790;0.298;2023-02-18T15:25:47;44.22;;;6.78;;
22614;SDS011;11474;50.790;0.298;2023-02-18T15:28:21;45.30;;;7.13;;
22614;SDS011;11474;50.790;0.298;2023-02-18T15:30:47;47.20;;;7.07;;
22614;SDS011;11474;50.790;0.298;2023-02-18T15:33:13;42.87;;;6.83;;
22614;SDS011;11474;50.790;0.298;2023-02-18T15:35:40;47.53;;;8.30;;
22614;SDS011;11474;50.790;0.298;2023-02-18T15:38:14;47.78;;;7.45;;
22614;SDS011;11474;50.790;0.298;2023-02-18T15:40:40;44.13;;;7.07;;
22614;SDS011;11474;50.790;0.298;2023-02-18T15:43:06;44.35;;;6.70;;
22614;SDS011;11474;50.790;0.298;2023-02-18T15:45:34;48.40;;;6.97;;
22614;SDS011;11474;50.790;0.298;2023-02-18T15:48:01;41.17;;;6.47;;
22614;SDS011;11474;50.790;0.298;2023-02-18T15:50:52;36.55;;;6.13;;
22614;SDS011;11474;50.790;0.298;2023-02-18T15:53:18;43.60;;;7.43;;
22614;SDS011;11474;50.790;0.298;2023-02-18T15:55:46;42.42;;;6.80;;
22614;SDS011;11474;50.790;0.298;2023-02-18T15:58:13;45.70;;;6.97;;
22614;SDS011;11474;50.790;0.298;2023-02-18T16:00:48;47.33;;;6.95;;
22614;SDS011;11474;50.790;0.298;2023-02-18T16:05:41;42.00;;;7.30;;
22614;SDS011;11474;50.790;0.298;2023-02-18T16:08:23;48.37;;;7.27;;
22614;SDS011;11474;50.790;0.298;2023-02-18T16:10:55;47.27;;;7.30;;
22614;SDS011;11474;50.790;0.298;2023-02-18T16:13:22;44.95;;;7.38;;
22614;SDS011;11474;50.790;0.298;2023-02-18T16:15:50;40.60;;;6.40;;
22614;SDS011;11474;50.790;0.298;2023-02-18T16:18:23;43.60;;;7.35;;
22614;SDS011;11474;50.790;0.298;2023-02-18T16:20:54;42.20;;;6.55;;
22614;SDS011;11474;50.790;0.298;2023-02-18T16:23:24;50.42;;;7.80;;
22614;SDS011;11474;50.790;0.298;2023-02-18T16:25:51;43.05;;;6.00;;
22614;SDS011;11474;50.790;0.298;2023-02-18T16:28:24;55.97;;;7.35;;
22614;SDS011;11474;50.790;0.298;2023-02-18T16:30:51;44.17;;;7.33;;
22614;SDS011;11474;50.790;0.298;2023-02-18T16:33:17;45.50;;;7.68;;
22614;SDS011;11474;50.790;0.298;2023-02-18T16:35:44;46.83;;;6.78;;
22614;SDS011;11474;50.790;0.298;2023-02-18T16:38:17;60.33;;;7.93;;
22614;SDS011;11474;50.790;0.298;2023-02-18T16:40:43;47.97;;;7.75;;
22614;SDS011;11474;50.790;0.298;2023-02-18T16:43:13;48.83;;;8.07;;
22614;SDS011;11474;50.790;0.298;2023-02-18T16:48:19;54.97;;;8.07;;
22614;SDS011;11474;50.790;0.298;2023-02-18T16:50:45;48.35;;;7.22;;
22614;SDS011;11474;50.790;0.298;2023-02-18T16:53:12;40.72;;;6.72;;
22614;SDS011;11474;50.790;0.298;2023-02-18T16:55:38;44.75;;;7.25;;
22614;SDS011;11474;50.790;0.298;2023-02-18T16:58:04;46.30;;;6.82;;
22614;SDS011;11474;50.790;0.298;2023-02-18T17:00:30;43.53;;;7.10;;
22614;SDS011;11474;50.790;0.298;2023-02-18T17:02:57;45.78;;;7.53;;
22614;SDS011;11474;50.790;0.298;2023-02-18T17:05:25;48.13;;;7.68;;
22614;SDS011;11474;50.790;0.298;2023-02-18T17:07:51;47.20;;;8.20;;
22614;SDS011;11474;50.790;0.298;2023-02-18T17:10:18;45.00;;;7.85;;
22614;SDS011;11474;50.790;0.298;2023-02-18T17:12:44;50.20;;;7.95;;
22614;SDS011;11474;50.790;0.298;2023-02-18T17:17:48;58.22;;;8.40;;
22614;SDS011;11474;50.790;0.298;2023-02-18T17:20:14;61.10;;;8.60;;
22614;SDS011;11474;50.790;0.298;2023-02-18T17:22:40;43.65;;;7.13;;
22614;SDS011;11474;50.790;0.298;2023-02-18T17:25:11;41.83;;;7.13;;
22614;SDS011;11474;50.790;0.298;2023-02-18T17:27:39;42.78;;;7.97;;
22614;SDS011;11474;50.790;0.298;2023-02-18T17:30:05;43.50;;;7.68;;